Nearby METAR Reports

 

YMEN - Melbourne/Essend, Australia
Distance from station: WNW 96km
Updated: 12/12/2017 07:00
Overcast
Overcast
 Wind from ESE
Wind: ESE 9 km/h
Temperature: 15°C
Dew Point: 10°C
Humidity: 72%
Barometer: 1018 hPa
Clouds: Overcast
Visibility: 10 km
Cloud details: Overcast 762 m
2017/12/11 20:00 YMEN 112000Z AUTO 11005KT 9999 // OVC025 15/10 Q1018
YMML - Melbourne Intl A, Australia
Distance from station: WNW 106km
Updated: 12/12/2017 07:00
Mostly cloudy
Mostly cloudy
 Wind from S
Wind: S 11 km/h
Temperature: 15°C
Dew Point: 10°C
Humidity: 72%
Barometer: 1018 hPa
Clouds: Mostly cloudy
Visibility: 10 km
Cloud details: Mostly cloudy 701 m
2017/12/11 20:00 YMML 112000Z 19006KT 9999 BKN023 15/10 Q1018 FM2130 16005KT CAVOK
YMAV - Avalon Airport, Australia
Distance from station: W 121km
Updated: 12/12/2017 07:00
Mostly cloudy
Mostly cloudy
 Wind from calm
Wind: Calm
Temperature: 15°C
Dew Point: 11°C
Humidity: 77%
Barometer: 1018 hPa
Clouds: Mostly cloudy
Visibility: 10 km
Cloud details: Mostly cloudy 762 m
2017/12/11 20:00 YMAV 112000Z AUTO 00000KT 9999 // BKN025 15/11 Q1018
 
YWGT - Wangaratta Arp, Australia
Distance from station: N 196km
Updated: 12/12/2017 07:00
Clear
Clear
 Wind from SSW
Wind: SSW 6 km/h
Temperature: 13°C
Dew Point: 11°C
Humidity: 88%
Barometer: 1016 hPa
Clouds: Clear
Visibility: 10 km
2017/12/11 20:00 YWGT 112000Z AUTO 20003KT 9999 // NCD 13/11 Q1016
YMAY - Albury Airport, Australia
Distance from station: NNE 250km
Updated: 12/12/2017 07:00
Clear
Clear
 Wind from calm
Wind: Calm
Temperature: 16°C
Dew Point: 11°C
Humidity: 72%
Barometer: 1017 hPa
Clouds: Clear
Visibility: 10 km
2017/12/11 20:00 YMAY 112000Z AUTO 00000KT 9999 // NCD 16/11 Q1017
YCOM - Cooma Snowy Mtns, Australia
Distance from station: NE 343km
Updated: 12/12/2017 07:30
Mostly cloudy
Mostly cloudy
 Wind from NE
Wind: NE 19 km/h
Temperature: 17°C
Dew Point: 15°C
Humidity: 88%
Barometer: 1020 hPa
Clouds: Mostly cloudy
Visibility: 10 km
Cloud details: Mostly cloudy 274 m
Mostly cloudy 396 m
2017/12/11 20:30 YCOM 112030Z AUTO 05010KT 9999 // BKN009 BKN013 17/15 Q1020
 
YSWG - Wagga Wagga(Cv/M, Australia
Distance from station: NNE 364km
Updated: 12/12/2017 07:00
Clear
Clear
 Wind from ESE
Wind: ESE 4 km/h
Temperature: 20°C
Dew Point: 15°C
Humidity: 73%
Barometer: 1017 hPa
Clouds: Clear
Visibility: 10 km
2017/12/11 20:00 YSWG 112000Z AUTO 11002KT 9999 // NCD 20/15 Q1017
YMER - Merimbula Arpt, Australia
Distance from station: ENE 382km
Updated: 12/12/2017 07:30
Overcast
Overcast
 Wind from calm
Wind: Calm
Temperature: 18°C
Dew Point: 15°C
Humidity: 83%
Barometer: 1019 hPa
Clouds: Overcast
Visibility: 10 km
Cloud details: Overcast 274 m
2017/12/11 20:30 YMER 112030Z AUTO 00000KT 9999 // OVC009 18/15 Q1019
YNAR - Narrandera, Australia
Distance from station: N 388km
Updated: 12/12/2017 07:00

 Wind from E
Wind: E 9 km/h
Temperature: 20°C
Dew Point: 13°C
Humidity: 64%
Barometer: 1016 hPa
2017/12/11 20:00 YNAR 112000Z AUTO 10005KT //// // ////// 20/13 Q1016
 
YMLT - Launceston Airpo, Australia
Distance from station: SSE 392km
Updated: 12/12/2017 07:00
Clear
Clear
 Wind from S
Wind: S 7 km/h
Temperature: 14°C
Dew Point: 9°C
Humidity: 72%
Barometer: 1016 hPa
Clouds: Clear
Visibility: 10 km
2017/12/11 20:00 YMLT 112000Z AUTO 17004KT 9999 // NCD 14/09 Q1016
YGTH - Griffith Arpt, Australia
Distance from station: N 434km
Updated: 12/12/2017 07:00
Clear
Clear
 Wind from ESE
Wind: ESE 13 km/h
Temperature: 21°C
Dew Point: 10°C
Humidity: 50%
Barometer: 1015 hPa
Clouds: Clear
Visibility: 10 km
2017/12/11 20:00 YGTH 112000Z AUTO 11007KT 9999 // NCD 21/10 Q1015
YSCB - Canberra (civ/Mi, Australia
Distance from station: NE 434km
Updated: 12/12/2017 07:30
Partly cloudy
Partly cloudy
 Wind from E
Wind: E 11 km/h
Temperature: 19°C
Dew Point: 13°C
Humidity: 68%
Barometer: 1020 hPa
Clouds: Partly cloudy
Visibility: 10 km
Cloud details: Partly cloudy 610 m
2017/12/11 20:30 YSCB 112030Z 09006KT 9999 SCT020 19/13 Q1020 NOSIG
 
YMTG - Mount Gambier, Australia
Distance from station: W 447km
Updated: 12/12/2017 07:00
Clear
Clear
 Wind from NE
Wind: NE 7 km/h
Temperature: 9°C
Wind Chill: 8°C
Dew Point: 9°C
Humidity: 100%
Barometer: 1017 hPa
Clouds: Clear
Visibility: 10 km
2017/12/11 20:00 YMTG 112000Z AUTO 05004KT 9999 // NCD 09/09 Q1017
YMHB - Hobart/Tasmania, Australia
Distance from station: SSE 538km
Updated: 12/12/2017 07:00
Few Clouds
Few Clouds
 Wind from N
Wind: N 15 km/h
Temperature: 15°C
Dew Point: 9°C
Humidity: 68%
Barometer: 1016 hPa
Clouds: Few Clouds
Visibility: 10 km
Cloud details: Few Clouds 762 m
2017/12/11 20:00 YMHB 112000Z 35008KT 9999 FEW025 15/09 Q1016
YSNW - Nowra (aus-Navy), Australia
Distance from station: NE 547km
Updated: 12/12/2017 07:00
Mostly cloudy
Mostly cloudy
 Wind from SE
Wind: SE 6 km/h
Temperature: 19°C
Dew Point: 18°C
Humidity: 94%
Barometer: 1018 hPa
Clouds: Mostly cloudy
Visibility: 10 km
Cloud details: Few Clouds 274 m
Mostly cloudy 1189 m
2017/12/11 20:00 YSNW 112000Z 14003KT 9999 FEW009 BKN039 19/18 Q1018 NOSIG
 
YMIA - Mildura Arpt, Australia
Distance from station: NW 551km
Updated: 12/12/2017 07:00
Clear
Clear
 Wind from SSE
Wind: SSE 13 km/h
Temperature: 17°C
Dew Point: 9°C
Humidity: 59%
Barometer: 1016 hPa
Clouds: Clear
Visibility: 10 km
2017/12/11 20:00 YMIA 112000Z AUTO 15007KT 9999 // NCD 17/09 Q1016
YSSY - Sydney Intl Airp, Australia
Distance from station: NE 667km
Updated: 12/12/2017 07:00
Partly cloudy
Partly cloudy
 Wind from NNE
Wind: NNE 11 km/h
Temperature: 23°C
Dew Point: 19°C
Humidity: 78%
Barometer: 1018 hPa
Clouds: Partly cloudy
Visibility: 10 km
Cloud details: Few Clouds 427 m
Partly cloudy 1067 m
2017/12/11 20:00 YSSY 112000Z 02006KT 9999 FEW014 SCT035 23/19 Q1018 NOSIG
YSRI - Richmond (aus-Af, Australia
Distance from station: NE 671km
Updated: 12/12/2017 07:00
Clear
Clear
 Wind from calm
Wind: Calm
Temperature: 20°C
Dew Point: 18°C
Humidity: 88%
Barometer: 1018 hPa
Clouds: Clear
Visibility: 10 km
2017/12/11 20:00 YSRI 112000Z AUTO 00000KT 9999 // NCD 20/18 Q1018
 
YSDU - Dubbo, Australia
Distance from station: NNE 704km
Updated: 12/12/2017 07:00
Clear
Clear
 Wind from E
Wind: E 22 km/h
Temperature: 22°C
Dew Point: 14°C
Humidity: 61%
Barometer: 1017 hPa
Clouds: Clear
Visibility: 10 km
2017/12/11 20:00 YSDU 112000Z AUTO 08012KT 9999 // NCD 22/14 Q1017
YMDG - Mudgee Arpt, Australia
Distance from station: NNE 708km
Updated: 12/12/2017 07:00
Clear
Clear
 Wind from S
Wind: S 7 km/h
Temperature: 19°C
Dew Point: 14°C
Humidity: 73%
Barometer: 1019 hPa
Clouds: Clear
Visibility: 10 km
2017/12/11 20:00 YMDG 112000Z AUTO 17004KT 9999 // NCD 19/14 Q1019